Dot Lake, Alaska
Current Conditions -  °F | °C
As of 5:53 PM on Friday 19 Dec 2014 (Local Time) from PABI Reporting Station
Few Clouds Few Clouds  
Wind Chill: -5°   Ceiling: Unl
Heat Index: 13°   Visibility: 10mi
Dew Point:   Wind: 20mph
Humidity: 74%   Direction: 110°ESE
Pressure: 29.23"   Gusts: 31mph
Location:  63.724°N, 145.666°W
Report Text: PABI 200253Z 11017G27KT 10SM FEW090 M11/M14 A2923 RMK AO2 PK WND 10029/0206 SLP936 T11061144 58007
Loading
Personal Weather Stations






























Interactive Weather Map New forecast layout! Learn more

10-Day Weather Forecast

Advertisements
Track Severe Weather on mobile